Stations météo

Publicité
Rodkallen, Suède (2188): Température de l'air & dewpoint: 20.06.2019 20:00:00 - 26.06.2019 20:00:00 (CEST)Rodkallen, Suède (2188): Vitesse du vent & gusts: 20.06.2019 20:00:00 - 26.06.2019 20:00:00 (CEST)Rodkallen, Suède (2188): Direction du vent: 20.06.2019 20:00:00 - 26.06.2019 20:00:00 (CEST)Rodkallen, Suède (2188): visibility: 20.06.2019 20:00:00 - 26.06.2019 20:00:00 (CEST)Rodkallen, Suède (2188): Quantités de précipitations: 20.06.2019 20:00:00 - 26.06.2019 20:00:00 (CEST)
Date & Time tt [°C] td [°C] ff [km/h] ff [knt] fx [km/h] fx [knt] dd vv [km] rr [mm]
26.06.2019 20:00:00 - - - - - - - - -
26.06.2019 19:00:00 12,5 10,7 21 11 35 19 S 31 0,0
26.06.2019 18:00:00 12,2 10,4 29 16 39 21 S 37 0,0
26.06.2019 17:00:00 12,5 10,6 36 19 42 23 S 37 0,0
26.06.2019 16:00:00 12,6 10,8 29 16 39 21 S 34 0,0
26.06.2019 15:00:00 12,4 10,8 31 17 38 21 S 42 0,0
26.06.2019 14:00:00 11,9 11,1 30 16 39 21 S 4,8 0,0
26.06.2019 13:00:00 11,1 10,5 35 19 42 23 S - 0,0
26.06.2019 12:00:00 10,9 10,1 31 17 39 21 S 1,1 0,0
26.06.2019 11:00:00 10,7 10,1 31 17 36 20 S 0,8 0,0
26.06.2019 10:00:00 10,6 10,0 31 17 36 19 S 0,9 0,0
26.06.2019 09:00:00 11,0 10,5 27 15 37 20 S 0,8 0,0
26.06.2019 08:00:00 11,0 10,2 31 17 35 19 S 0,7 0,0
26.06.2019 07:00:00 12,2 10,4 18 10 21 11 S 33 0,0
26.06.2019 06:00:00 11,5 10,1 18 10 23 12 SSW 42 0,0
26.06.2019 05:00:00 11,5 10,2 18 10 23 12 S 50 0,0
26.06.2019 04:00:00 11,6 10,3 16 9 21 11 S 50 0,0
26.06.2019 03:00:00 11,4 10,3 17 9 23 12 S 47 0,0
26.06.2019 02:00:00 11,5 10,4 17 9 20 11 S 50 0,0
26.06.2019 01:00:00 11,8 10,2 18 10 22 12 S 50 0,0
26.06.2019 00:00:00 11,8 10,2 19 10 26 14 SSW 50 0,0
25.06.2019 23:00:00 11,8 10,2 21 12 26 14 S 50 0,0
25.06.2019 22:00:00 12,1 10,2 23 13 27 15 SSW 50 0,0
25.06.2019 21:00:00 12,4 10,3 22 12 27 15 S 48 0,0
25.06.2019 20:00:00 12,6 10,0 23 12 27 15 S 45 0,0
25.06.2019 19:00:00 13,1 9,7 23 12 28 15 S 50 0,0
25.06.2019 18:00:00 13,4 8,7 24 13 29 16 SSW 50 0,0
25.06.2019 17:00:00 13,8 8,6 18 10 27 15 S 43 0,0
25.06.2019 16:00:00 13,6 8,6 24 13 30 16 S 41 0,0
25.06.2019 15:00:00 13,9 8,3 24 13 28 15 S 44 0,0
25.06.2019 14:00:00 14,8 8,3 16 9 23 12 S 50 0,0
25.06.2019 13:00:00 14,6 8,5 11 6 14 7 SW 46 0,0
25.06.2019 12:00:00 13,9 8,5 10 5 16 9 SW 39 0,0
25.06.2019 11:00:00 13,8 7,8 14 8 19 10 SW 49 0,0
25.06.2019 10:00:00 13,8 7,8 16 8 19 11 WSW 38 0,0
25.06.2019 09:00:00 14,0 7,7 16 8 21 11 W 44 0,0
25.06.2019 08:00:00 13,3 6,6 19 10 24 13 WNW 48 0,0
25.06.2019 07:00:00 12,2 6,9 23 12 31 17 W 50 0,0
25.06.2019 06:00:00 11,9 6,4 27 15 33 18 W 50 0,0
25.06.2019 05:00:00 11,8 6,3 26 14 32 18 W 50 0,0
25.06.2019 04:00:00 12,0 6,5 26 14 35 19 W 50 0,0
25.06.2019 03:00:00 12,6 6,8 29 15 35 19 W 50 0,0
25.06.2019 02:00:00 12,9 8,4 18 10 26 14 W 50 0,0
25.06.2019 01:00:00 13,0 9,6 18 10 33 18 W 50 0,0
25.06.2019 00:00:00 13,3 9,2 26 14 30 16 WSW 50 0,0
24.06.2019 23:00:00 13,1 9,0 21 11 27 14 SW 50 0,0
24.06.2019 22:00:00 12,9 9,5 16 9 19 11 SSW 50 0,0
24.06.2019 21:00:00 13,2 9,4 14 8 24 13 SSW 50 0,0
24.06.2019 20:00:00 13,3 9,4 16 9 19 10 SSW 50 0,0
24.06.2019 19:00:00 13,2 9,6 16 9 19 10 SSW 47 0,0
24.06.2019 18:00:00 12,8 9,8 12 7 19 10 S 45 0,0
24.06.2019 17:00:00 13,0 9,3 16 8 26 14 S 47 0,0
24.06.2019 16:00:00 13,5 8,3 15 8 24 13 S 36 0,0
24.06.2019 15:00:00 12,5 9,0 22 12 26 14 S 48 0,0
24.06.2019 14:00:00 13,1 9,0 15 8 19 10 S 50 0,0
24.06.2019 13:00:00 11,7 9,9 11 6 21 11 S 34 0,1
24.06.2019 12:00:00 12,3 8,6 17 9 20 11 S 47 0,0
24.06.2019 11:00:00 12,2 9,0 16 9 20 11 S 42 0,0
24.06.2019 10:00:00 11,8 9,0 17 9 20 11 SSW 45 0,0
24.06.2019 09:00:00 11,5 8,0 16 9 18 10 SSW 50 0,0
24.06.2019 08:00:00 11,5 7,6 7 4 9 5 SSW 50 0,0
24.06.2019 07:00:00 11,4 6,9 3 2 7 4 WSW 45 0,0
24.06.2019 06:00:00 11,3 6,8 3 1 8 5 WSW 31 0,0
24.06.2019 05:00:00 11,1 6,6 7 4 11 6 NNW 47 0,0
24.06.2019 04:00:00 10,5 6,8 9 5 15 8 N 50 0,0
24.06.2019 03:00:00 10,1 6,4 12 7 19 10 N 50 0,0
24.06.2019 02:00:00 10,7 6,6 14 8 18 10 NNE 50 0,0
24.06.2019 01:00:00 10,9 7,4 11 6 19 10 NNE 50 0,0
24.06.2019 00:00:00 11,3 7,6 12 7 17 9 N 50 0,0
23.06.2019 23:00:00 11,2 8,9 8 4 12 6 ENE 50 0,0
23.06.2019 22:00:00 11,4 9,0 11 6 17 9 SE 50 0,0
23.06.2019 21:00:00 11,8 9,0 16 8 22 12 E 50 0,0
23.06.2019 20:00:00 12,1 9,1 20 11 29 15 ENE 50 0,0
23.06.2019 19:00:00 13,1 7,8 13 7 28 15 E 41 0,0
23.06.2019 18:00:00 15,5 8,9 8 5 15 8 WSW 50 0,0
23.06.2019 17:00:00 16,2 6,1 8 5 21 11 WNW 36 0,0
23.06.2019 16:00:00 14,3 6,9 12 7 15 8 SSE 40 0,0
23.06.2019 15:00:00 14,1 7,4 6 3 23 12 NE 41 0,0
23.06.2019 14:00:00 13,8 8,8 8 4 22 12 WSW 29 0,0
23.06.2019 13:00:00 14,4 7,7 19 10 23 12 WSW 44 0,0
23.06.2019 12:00:00 14,8 7,8 16 9 28 15 W 41 0,0
23.06.2019 11:00:00 14,4 7,2 26 14 30 16 WNW 47 0,0
23.06.2019 10:00:00 13,2 7,8 23 12 37 20 W 50 0,0
23.06.2019 09:00:00 12,4 6,9 29 16 41 22 W 50 0,0
23.06.2019 08:00:00 11,8 6,7 31 17 47 26 W 45 0,0
23.06.2019 07:00:00 11,2 6,3 38 21 50 27 W 49 0,0
23.06.2019 06:00:00 11,0 5,9 39 21 48 26 W 45 0,0
23.06.2019 05:00:00 11,0 6,3 37 20 50 27 W 50 0,0
23.06.2019 04:00:00 11,2 6,1 42 23 58 31 W 50 0,0
23.06.2019 03:00:00 11,4 6,3 42 23 55 30 W 50 0,0
23.06.2019 02:00:00 11,4 6,9 41 22 51 28 W 50 0,0
23.06.2019 01:00:00 11,1 7,8 37 20 50 27 W 28 0,7
23.06.2019 00:00:00 11,0 8,4 36 19 54 29 W 40 0,6
22.06.2019 23:00:00 10,9 9,0 38 21 64 35 W 19 1,9
22.06.2019 22:00:00 10,6 8,0 56 31 75 41 W 9 2,9
22.06.2019 21:00:00 10,5 7,7 61 33 84 45 W 9 2,1
22.06.2019 20:00:00 10,5 8,3 62 33 84 46 W 5 2,8
22.06.2019 19:00:00 10,5 8,4 66 35 81 44 W 4,0 3,2
22.06.2019 18:00:00 10,3 8,6 61 33 77 41 W 4,8 1,9
22.06.2019 17:00:00 10,6 8,5 58 31 70 38 W 10 0,7
22.06.2019 16:00:00 10,7 9,5 45 24 55 30 W 2,7 0,6
22.06.2019 15:00:00 12,0 9,2 41 22 53 29 W 15 0,0
22.06.2019 14:00:00 12,6 9,4 40 21 49 26 W 42 0,0
22.06.2019 13:00:00 12,8 10,5 38 21 58 32 W 50 0,0
22.06.2019 12:00:00 12,8 11,5 50 27 61 33 W 34 1,3
22.06.2019 11:00:00 13,2 12,1 40 21 51 27 W 7 -
22.06.2019 10:00:00 13,2 12,9 17 9 21 11 S 1,8 0,0
22.06.2019 09:00:00 13,0 12,5 7 4 10 5 SSW 1,4 0,0
22.06.2019 08:00:00 12,5 12,0 6 3 15 8 ESE 1,1 0,0
22.06.2019 07:00:00 13,4 12,6 9 5 15 8 NNE 17 0,0
22.06.2019 06:00:00 12,6 12,1 7 4 14 8 NW 18 0,0
22.06.2019 05:00:00 12,2 11,4 12 7 20 11 S 19 0,0
22.06.2019 04:00:00 11,8 11,0 19 11 22 12 S 9 0,0
22.06.2019 03:00:00 12,1 11,2 15 8 22 12 S 28 0,0
22.06.2019 02:00:00 12,3 11,4 16 8 19 11 SSE 32 0,0
22.06.2019 01:00:00 12,8 11,7 11 6 32 18 SSW 39 0,0
22.06.2019 00:00:00 12,3 11,0 27 15 37 20 S 38 0,0
21.06.2019 23:00:00 12,8 11,5 24 13 33 18 S 45 0,0
21.06.2019 22:00:00 13,2 12,3 15 8 19 10 SSE 29 0,0
21.06.2019 21:00:00 12,9 12,1 14 8 18 10 SE 29 0,0
21.06.2019 20:00:00 13,1 12,0 9 5 23 12 WSW 32 0,0
21.06.2019 19:00:00 13,3 11,9 18 10 28 15 S 45 0,0
21.06.2019 18:00:00 13,9 12,5 21 12 26 14 S 49 0,0
21.06.2019 17:00:00 13,0 12,1 20 11 25 13 SSE 18 0,0
21.06.2019 16:00:00 13,0 12,4 7 4 22 12 SSE 2,5 0,0
21.06.2019 15:00:00 13,0 12,5 19 11 24 13 S 0,5 0,0
21.06.2019 14:00:00 13,4 12,9 17 9 24 13 S 0,5 0,0
21.06.2019 13:00:00 12,5 12,0 20 11 24 13 SSE 0,3 0,0
21.06.2019 12:00:00 13,4 12,6 20 11 23 13 SSE 1,4 0,0
21.06.2019 11:00:00 14,2 13,1 19 11 23 12 S 12 0,0
21.06.2019 10:00:00 14,2 12,6 17 9 27 14 SSW 22 0,0
21.06.2019 09:00:00 13,5 12,1 24 13 28 15 S 20 0,0
21.06.2019 08:00:00 13,3 11,9 21 11 26 14 S 21 0,0
21.06.2019 07:00:00 12,9 11,6 19 10 23 13 SSE 20 0,0
21.06.2019 06:00:00 13,1 12,0 14 8 24 13 SSE 22 0,0
21.06.2019 05:00:00 13,4 12,3 18 10 31 17 E 37 0,0
21.06.2019 04:00:00 13,3 12,7 26 14 33 18 E 11 -
21.06.2019 03:00:00 13,7 12,9 29 15 35 19 ENE 16 0,9
21.06.2019 02:00:00 13,6 12,7 24 13 30 16 ENE 11 0,7
21.06.2019 01:00:00 14,0 12,4 23 12 29 16 ENE 31 0,6
21.06.2019 00:00:00 14,2 12,2 17 9 34 19 E 14 2,3
20.06.2019 23:00:00 14,6 11,9 30 16 36 19 E 50 0,0
20.06.2019 22:00:00 14,5 12,0 30 16 38 20 ENE 50 0,0
20.06.2019 21:00:00 14,7 11,8 29 16 35 19 ENE 50 0,0
20.06.2019 20:00:00 14,5 12,5 26 14 31 17 ENE 50 0,3

tt = Température de l'air
td = dewpoint
ff = Vitesse du vent
fx = gusts
dd = Direction du vent
vv = visibility
rr = Quantités de précipitations

stations d'obs. à proximité